Time;durP1;ratioP1;P1;durP2;ratioP2;P2;SDS_P1;SDS_P2;PMS_P1;PMS_P2;Temp;Humidity;BMP_temperature;BMP_pressure;BME280_temperature;BME280_humidity;BME280_pressure;Samples;Min_cycle;Max_cycle;Signal;HPM_P1;HPM_P2
2022/11/29 00:00:01;;;;;;;918.63;853.53;;;;;;;5.84;67.55;101184.19;695933;28;22556;-59
2022/11/29 00:00:22;;;;;;;963.60;896.92;;;;;;;5.83;67.63;101178.97;695960;28;21550;-59
2022/11/29 00:00:44;;;;;;;977.28;909.88;;;;;;;5.84;67.61;101177.97;694769;28;45287;-61
2022/11/29 00:01:07;;;;;;;993.30;925.35;;;;;;;5.83;67.75;101182.50;695014;28;44012;-61
2022/11/29 00:01:29;;;;;;;941.50;875.33;;;;;;;5.83;67.76;101181.63;694246;28;69350;-61
2022/11/29 00:01:51;;;;;;;913.88;848.63;;;;;;;5.83;67.60;101182.50;695027;28;44374;-60
2022/11/29 00:02:13;;;;;;;913.85;848.65;;;;;;;5.83;67.73;101178.97;695850;28;22364;-60
2022/11/29 00:02:34;;;;;;;943.85;877.80;;;;;;;5.81;67.79;101176.41;694372;28;69435;-61
2022/11/29 00:02:55;;;;;;;977.55;910.40;;;;;;;5.82;67.58;101180.81;695503;28;23438;-59
2022/11/29 00:03:17;;;;;;;986.30;918.80;;;;;;;5.78;67.74;101172.19;695188;28;21547;-61
2022/11/29 00:03:39;;;;;;;960.90;894.25;;;;;;;5.81;67.86;101184.47;695989;28;22542;-59
2022/11/29 00:04:02;;;;;;;921.35;855.90;;;;;;;5.81;67.70;101173.72;694253;28;67518;-58
2022/11/29 00:04:23;;;;;;;914.38;849.17;;;;;;;5.82;67.86;101182.66;694202;28;67159;-60
2022/11/29 00:04:45;;;;;;;886.55;821.88;;;;;;;5.83;67.73;101178.97;693684;28;22470;-60
2022/11/29 00:05:07;;;;;;;953.00;885.88;;;;;;;5.82;67.67;101178.13;694884;28;21536;-61
2022/11/29 00:05:29;;;;;;;944.75;877.97;;;;;;;5.84;67.75;101180.66;693307;28;45304;-60
2022/11/29 00:05:50;;;;;;;882.95;818.42;;;;;;;5.83;67.82;101178.97;693666;28;46323;-60
2022/11/29 00:06:14;;;;;;;893.35;828.10;;;;;;;5.82;67.75;101182.66;693986;28;24799;-61
2022/11/29 00:06:36;;;;;;;930.40;864.20;;;;;;;5.84;67.83;101183.34;690426;28;92273;-60
2022/11/29 00:06:58;;;;;;;983.88;916.03;;;;;;;5.82;67.70;101180.81;693600;28;44361;-60
2022/11/29 00:07:19;;;;;;;998.45;930.15;;;;;;;5.81;67.87;101181.78;694099;28;44387;-59
2022/11/29 00:07:40;;;;;;;994.78;926.75;;;;;;;5.82;67.72;101177.28;695255;28;22445;-61
2022/11/29 00:08:02;;;;;;;953.85;887.05;;;;;;;5.83;67.78;101181.63;690779;28;46294;-61
2022/11/29 00:08:23;;;;;;;918.30;852.63;;;;;;;5.83;67.67;101173.59;692301;28;22425;-60
2022/11/29 00:08:46;;;;;;;936.40;870.03;;;;;;;5.83;67.73;101178.97;692878;28;22366;-62
2022/11/29 00:09:11;;;;;;;936.17;869.70;;;;;;;5.82;67.56;101172.75;690560;28;92416;-60
2022/11/29 00:09:32;;;;;;;971.55;903.83;;;;;;;5.82;67.69;101179.97;691859;28;115127;-61
2022/11/29 00:09:55;;;;;;;996.42;928.05;;;;;;;5.82;67.83;101174.59;695115;28;22374;-61
2022/11/29 00:10:16;;;;;;;1015.33;946.20;;;;;;;5.81;67.70;101173.72;691584;28;45254;-60
2022/11/29 00:10:38;;;;;;;1017.25;947.97;;;;;;;5.81;67.74;101173.72;691311;28;44401;-61
2022/11/29 00:11:03;;;;;;;995.10;926.70;;;;;;;5.82;67.65;101177.28;691541;28;22224;-61
2022/11/29 00:12:14;;;;;;;999.97;931.33;;;;;;;5.83;67.62;101179.81;688553;28;158881;-60
2022/11/29 00:12:36;;;;;;;1015.17;946.00;;;;;;;5.83;67.84;101171.78;690877;28;138061;-61
2022/11/29 00:12:57;;;;;;;966.92;899.42;;;;;;;5.84;67.77;101180.66;693972;28;67493;-61
2022/11/29 00:13:19;;;;;;;998.65;930.20;;;;;;;5.84;67.56;101177.97;694349;28;22855;-59
2022/11/29 00:13:40;;;;;;;1012.80;943.88;;;;;;;5.85;67.62;101185.06;695013;28;23420;-61
2022/11/29 00:14:03;;;;;;;976.92;909.25;;;;;;;5.85;67.73;101179.69;694558;28;45236;-60
2022/11/29 00:14:25;;;;;;;974.85;907.65;;;;;;;5.85;67.69;101185.06;694048;28;68930;-60
2022/11/29 00:14:46;;;;;;;967.88;900.63;;;;;;;5.84;67.65;101186.03;694983;28;21552;-61
2022/11/29 00:15:08;;;;;;;990.28;922.13;;;;;;;5.84;67.71;101180.66;695008;28;21573;-59
2022/11/29 00:15:34;;;;;;;1006.35;937.58;;;;;;;5.81;67.59;101178.25;694662;28;44194;-62
2022/11/29 00:16:01;;;;;;;1004.45;935.92;;;;;;;5.85;67.79;101190.41;691287;28;137916;-59
2022/11/29 00:16:22;;;;;;;980.20;912.58;;;;;;;5.83;67.80;101182.50;690347;28;159204;-61
2022/11/29 00:16:43;;;;;;;979.25;911.78;;;;;;;5.84;67.68;101177.97;694298;28;45268;-60
2022/11/29 00:17:06;;;;;;;999.33;930.97;;;;;;;5.84;67.65;101186.03;695533;28;21546;-60
2022/11/29 00:17:27;;;;;;;1008.35;939.58;;;;;;;5.80;67.82;101173.88;692317;28;69360;-61
2022/11/29 00:17:48;;;;;;;985.70;917.35;;;;;;;5.85;67.79;101185.06;694089;28;22417;-61
2022/11/29 00:18:09;;;;;;;1003.22;934.35;;;;;;;5.87;67.63;101180.41;694087;28;22196;-61
2022/11/29 00:18:31;;;;;;;1013.95;944.75;;;;;;;5.87;67.60;101183.91;694000;28;46298;-60
2022/11/29 00:18:55;;;;;;;994.17;926.08;;;;;;;5.88;67.60;101184.78;694885;28;21564;-61
2022/11/29 00:19:16;;;;;;;986.65;918.72;;;;;;;5.86;67.61;101174.19;693000;28;92270;-61
2022/11/29 00:19:38;;;;;;;999.22;930.88;;;;;;;5.88;67.58;101174.06;695266;28;22484;-61
2022/11/29 00:20:00;;;;;;;1001.97;933.67;;;;;;;5.89;67.70;101181.09;694229;28;45152;-61
2022/11/29 00:20:21;;;;;;;994.13;926.00;;;;;;;5.90;67.29;101180.13;694249;28;44214;-61
2022/11/29 00:20:43;;;;;;;997.55;929.33;;;;;;;5.91;67.55;101179.16;694716;28;46395;-61
2022/11/29 00:21:05;;;;;;;981.20;913.38;;;;;;;5.91;67.42;101185.34;694343;28;23616;-61
2022/11/29 00:21:26;;;;;;;995.35;927.10;;;;;;;5.88;67.34;101174.91;693590;28;46346;-61
2022/11/29 00:21:48;;;;;;;997.80;929.42;;;;;;;5.90;67.49;101172.09;695546;28;22378;-61
2022/11/29 00:22:10;;;;;;;997.92;929.70;;;;;;;5.89;67.35;101179.28;690053;28;69279;-61
2022/11/29 00:22:31;;;;;;;975.10;907.78;;;;;;;5.88;67.53;101174.06;692183;28;21409;-61
2022/11/29 00:22:52;;;;;;;978.97;911.22;;;;;;;5.88;67.41;101179.44;695057;28;22394;-59
2022/11/29 00:23:14;;;;;;;997.25;928.60;;;;;;;5.88;67.23;101176.75;693536;28;22247;-59
2022/11/29 00:23:36;;;;;;;1002.85;934.30;;;;;;;5.86;67.65;101179.56;691335;28;44021;-61
2022/11/29 00:23:57;;;;;;;975.55;907.95;;;;;;;5.91;67.39;101176.47;695221;28;22446;-61
2022/11/29 00:24:19;;;;;;;983.97;915.97;;;;;;;5.91;67.45;101177.31;694291;28;45225;-61
2022/11/29 00:24:41;;;;;;;963.33;896.00;;;;;;;5.91;67.27;101181.84;693935;28;45258;-61
2022/11/29 00:25:03;;;;;;;981.35;913.55;;;;;;;5.90;67.46;101177.44;694435;28;45275;-62
2022/11/29 00:25:25;;;;;;;990.65;922.75;;;;;;;5.89;67.34;101190.00;693973;28;44175;-61
2022/11/29 00:25:46;;;;;;;990.67;922.63;;;;;;;5.89;67.35;101183.78;693213;28;22481;-61
2022/11/29 00:26:07;;;;;;;967.75;900.63;;;;;;;5.86;67.22;101181.38;693148;28;47296;-61
2022/11/29 00:26:29;;;;;;;969.33;902.35;;;;;;;5.89;67.41;101179.28;694889;28;22367;-61
2022/11/29 00:26:52;;;;;;;961.28;894.47;;;;;;;5.89;67.22;101187.34;693732;28;46382;-62
2022/11/29 00:27:13;;;;;;;980.35;912.88;;;;;;;5.90;67.24;101182.81;690878;28;46494;-62
2022/11/29 00:27:34;;;;;;;983.88;916.13;;;;;;;5.90;67.21;101180.13;690022;28;44722;-59
2022/11/29 00:27:55;;;;;;;992.75;924.45;;;;;;;5.90;67.43;101178.28;688982;28;22388;-60
2022/11/29 00:28:17;;;;;;;990.63;922.55;;;;;;;5.90;67.15;101178.28;688638;28;23498;-60
2022/11/29 00:28:39;;;;;;;994.28;926.10;;;;;;;5.90;67.40;101175.59;689865;28;21566;-62
2022/11/29 00:29:00;;;;;;;982.10;914.33;;;;;;;5.89;67.19;101179.28;688587;28;69287;-61
2022/11/29 00:29:21;;;;;;;969.25;902.03;;;;;;;5.89;67.06;101183.78;692053;28;21510;-60
2022/11/29 00:29:43;;;;;;;988.45;920.45;;;;;;;5.89;67.37;101173.06;692459;28;22397;-60
2022/11/29 00:30:07;;;;;;;975.22;907.45;;;;;;;5.88;67.46;101185.63;694036;28;46815;-61
2022/11/29 00:30:28;;;;;;;987.15;919.65;;;;;;;5.88;67.39;101184.78;692370;28;90347;-61
2022/11/29 00:30:49;;;;;;;978.80;911.70;;;;;;;5.88;67.39;101179.44;693352;28;23390;-61
2022/11/29 00:31:15;;;;;;;980.53;913.28;;;;;;;5.86;67.28;101182.25;695680;28;22333;-62
2022/11/29 00:31:37;;;;;;;960.78;894.13;;;;;;;5.86;67.34;101184.06;691674;28;136347;-59
2022/11/29 00:31:59;;;;;;;989.80;922.20;;;;;;;5.86;67.51;101181.38;694613;28;46536;-61
2022/11/29 00:32:20;;;;;;;999.13;931.13;;;;;;;5.85;67.52;101180.53;694800;28;48083;-60
2022/11/29 00:32:42;;;;;;;977.03;909.85;;;;;;;5.86;67.65;101187.59;695745;28;22385;-60
2022/11/29 00:33:03;;;;;;;974.38;907.28;;;;;;;5.86;67.78;101181.38;694165;28;46361;-60
2022/11/29 00:33:25;;;;;;;978.20;911.15;;;;;;;5.85;67.70;101182.38;694983;28;43679;-61
2022/11/29 00:33:47;;;;;;;976.72;909.85;;;;;;;5.86;67.41;101181.38;695461;28;21534;-60
2022/11/29 00:34:12;;;;;;;932.55;866.97;;;;;;;5.86;67.61;101190.28;694695;28;44419;-61
2022/11/29 00:34:33;;;;;;;912.72;847.67;;;;;;;5.86;67.51;101178.69;692580;28;115077;-61
2022/11/29 00:34:54;;;;;;;979.80;912.53;;;;;;;5.86;67.61;101184.91;695525;28;23451;-61
2022/11/29 00:35:15;;;;;;;980.05;912.67;;;;;;;5.87;67.63;101178.56;695465;28;21525;-62
2022/11/29 00:35:38;;;;;;;996.08;928.22;;;;;;;5.87;67.53;101183.91;694276;28;46216;-62
2022/11/29 00:36:00;;;;;;;964.38;897.50;;;;;;;5.85;67.35;101182.38;694417;28;46406;-61
2022/11/29 00:36:23;;;;;;;936.22;870.22;;;;;;;5.88;67.47;101185.63;693065;28;92218;-61
2022/11/29 00:36:44;;;;;;;982.05;914.83;;;;;;;5.89;67.37;101186.47;694806;28;46288;-61
2022/11/29 00:37:07;;;;;;;963.28;896.70;;;;;;;5.88;67.19;101180.25;695796;28;21291;-62
2022/11/29 00:37:28;;;;;;;975.13;908.25;;;;;;;5.87;67.43;101189.28;695022;28;44008;-61
2022/11/29 00:37:50;;;;;;;989.17;921.78;;;;;;;5.86;67.42;101179.56;692610;28;22474;-61
2022/11/29 00:38:11;;;;;;;994.40;926.75;;;;;;;5.84;67.30;101181.50;691904;28;23512;-61
2022/11/29 00:38:32;;;;;;;977.08;910.05;;;;;;;5.86;67.41;101182.25;692757;28;21527;-61
2022/11/29 00:38:54;;;;;;;991.28;923.78;;;;;;;5.85;67.30;101185.91;691972;28;45238;-61
2022/11/29 00:39:16;;;;;;;998.20;930.33;;;;;;;5.87;67.26;101188.44;691858;28;46187;-60
2022/11/29 00:39:37;;;;;;;979.17;911.90;;;;;;;5.88;67.39;101185.63;690997;28;20270;-62
2022/11/29 00:39:58;;;;;;;961.95;895.30;;;;;;;5.86;67.36;101182.25;690358;28;44323;-60
2022/11/29 00:40:20;;;;;;;975.83;908.63;;;;;;;5.88;67.41;101184.78;691810;28;23447;-61
2022/11/29 00:40:42;;;;;;;987.20;919.70;;;;;;;5.89;67.42;101183.78;690903;28;44390;-61
2022/11/29 00:41:04;;;;;;;989.47;921.90;;;;;;;5.87;67.21;101181.22;691280;28;22426;-61
2022/11/29 00:41:25;;;;;;;992.95;925.33;;;;;;;5.86;67.19;101181.38;692764;28;46597;-62
2022/11/29 00:41:47;;;;;;;980.92;913.83;;;;;;;5.87;67.14;101181.22;694822;28;44381;-61
2022/11/29 00:42:09;;;;;;;977.53;910.50;;;;;;;5.88;67.29;101182.09;693884;28;46346;-61
2022/11/29 00:42:30;;;;;;;985.65;918.38;;;;;;;5.86;67.23;101182.25;695626;28;23463;-61
2022/11/29 00:42:51;;;;;;;1001.40;933.60;;;;;;;5.88;67.28;101185.63;694385;28;46535;-61
2022/11/29 00:43:12;;;;;;;979.65;912.75;;;;;;;5.88;67.34;101176.75;694891;28;22397;-59
2022/11/29 00:43:35;;;;;;;995.75;928.25;;;;;;;5.88;67.41;101180.25;695102;28;22334;-59
2022/11/29 00:43:56;;;;;;;995.72;928.10;;;;;;;5.89;67.45;101181.09;694222;28;67359;-60
2022/11/29 00:44:17;;;;;;;976.13;909.13;;;;;;;5.89;67.22;101181.97;695874;28;22398;-61
2022/11/29 00:44:40;;;;;;;989.47;922.08;;;;;;;5.82;67.04;101171.91;695544;28;23471;-60
2022/11/29 00:45:01;;;;;;;1002.60;934.50;;;;;;;5.86;67.29;101182.25;693849;28;69198;-59
2022/11/29 00:45:22;;;;;;;1001.22;933.22;;;;;;;5.88;67.32;101185.63;695875;28;21522;-61
2022/11/29 00:45:43;;;;;;;984.78;917.47;;;;;;;5.88;67.39;101180.25;695672;28;22403;-60
2022/11/29 00:46:05;;;;;;;989.75;922.33;;;;;;;5.87;67.32;101186.59;695943;28;22432;-60
2022/11/29 00:46:28;;;;;;;973.90;906.97;;;;;;;5.87;67.16;101183.91;694077;28;69269;-60
2022/11/29 00:46:49;;;;;;;964.88;898.35;;;;;;;5.85;67.28;101185.91;694683;28;45575;-61
2022/11/29 00:47:10;;;;;;;967.22;900.78;;;;;;;5.87;67.40;101180.41;695435;28;22410;-61
2022/11/29 00:47:31;;;;;;;974.80;908.13;;;;;;;5.87;67.21;101186.59;694738;28;43721;-60
2022/11/29 00:47:54;;;;;;;970.35;903.75;;;;;;;5.87;67.19;101181.22;692647;28;22392;-60
2022/11/29 00:48:15;;;;;;;972.67;905.97;;;;;;;5.88;67.42;101174.06;691354;28;45135;-59
2022/11/29 00:48:36;;;;;;;976.33;909.47;;;;;;;5.87;67.33;101175.03;690011;28;22392;-55
2022/11/29 00:48:57;;;;;;;984.25;916.95;;;;;;;5.87;67.29;101173.19;689204;28;46758;-56
2022/11/29 00:49:21;;;;;;;987.15;919.85;;;;;;;5.90;67.24;101183.66;690231;28;21553;-56
2022/11/29 00:49:42;;;;;;;980.75;913.55;;;;;;;5.90;67.33;101180.97;690315;28;69211;-56
2022/11/29 00:50:05;;;;;;;962.58;896.00;;;;;;;5.89;67.32;101184.66;692868;28;46296;-56
2022/11/29 00:50:26;;;;;;;970.83;904.00;;;;;;;5.88;67.40;101179.44;691497;28;69210;-55
2022/11/29 00:50:48;;;;;;;981.40;914.13;;;;;;;5.87;67.02;101180.41;692765;28;23471;-56
2022/11/29 00:51:10;;;;;;;988.78;921.17;;;;;;;5.86;67.21;101184.91;693011;28;22381;-58
2022/11/29 00:51:31;;;;;;;977.38;910.15;;;;;;;5.86;67.12;101184.06;691667;28;43732;-59
2022/11/29 00:51:52;;;;;;;965.90;899.13;;;;;;;5.84;67.56;101183.34;691963;28;44439;-60
2022/11/29 00:52:15;;;;;;;990.80;923.42;;;;;;;5.80;67.38;101180.09;692158;28;22394;-60
2022/11/29 00:52:36;;;;;;;984.05;916.90;;;;;;;5.82;67.44;101183.47;692166;28;44292;-57
2022/11/29 00:52:57;;;;;;;962.72;896.38;;;;;;;5.83;67.30;101178.97;691666;28;44382;-60
2022/11/29 00:53:18;;;;;;;975.22;908.28;;;;;;;5.83;67.33;101187.88;691421;28;21325;-59
2022/11/29 00:53:40;;;;;;;981.22;914.15;;;;;;;5.83;67.23;101179.81;692988;28;23487;-60
2022/11/29 00:54:02;;;;;;;986.55;919.22;;;;;;;5.82;67.50;101180.81;693097;28;23312;-59
2022/11/29 00:54:23;;;;;;;964.30;897.65;;;;;;;5.81;67.47;101183.63;691422;28;67486;-60
2022/11/29 00:54:45;;;;;;;896.30;831.65;;;;;;;5.82;67.57;101179.97;695232;28;21529;-58
2022/11/29 00:55:07;;;;;;;907.28;842.33;;;;;;;5.84;67.42;101180.66;694338;28;46027;-59
2022/11/29 00:55:29;;;;;;;975.47;908.40;;;;;;;5.83;67.38;101182.50;695745;28;24313;-60
2022/11/29 00:55:51;;;;;;;994.70;927.03;;;;;;;5.83;67.39;101182.50;693904;28;67470;-58
2022/11/29 00:56:12;;;;;;;971.63;904.63;;;;;;;5.83;67.46;101177.16;694885;28;44384;-59
2022/11/29 00:56:33;;;;;;;971.53;904.60;;;;;;;5.83;67.59;101185.19;695657;28;22402;-61
2022/11/29 00:56:56;;;;;;;987.33;919.92;;;;;;;5.86;67.55;101184.06;695657;28;22395;-57
2022/11/29 00:57:17;;;;;;;992.53;924.90;;;;;;;5.82;67.47;101174.59;694022;28;67468;-59
2022/11/29 00:57:38;;;;;;;973.15;906.25;;;;;;;5.84;67.57;101178.81;695808;28;21539;-58
2022/11/29 00:57:59;;;;;;;970.53;903.72;;;;;;;5.85;67.39;101174.34;694694;28;22898;-61
2022/11/29 00:58:21;;;;;;;982.13;914.92;;;;;;;5.85;67.52;101182.38;695751;28;23744;-59
2022/11/29 00:58:43;;;;;;;995.05;927.47;;;;;;;5.83;67.36;101176.28;694876;28;44364;-57
2022/11/29 00:59:04;;;;;;;977.58;910.42;;;;;;;5.85;67.27;101183.22;694827;28;46308;-60
2022/11/29 00:59:26;;;;;;;992.17;924.38;;;;;;;5.84;67.30;101175.31;694788;28;45224;-60
2022/11/29 00:59:48;;;;;;;981.55;914.35;;;;;;;5.86;67.10;101179.56;695538;28;21539;-59
2022/11/29 01:00:10;;;;;;;975.55;908.55;;;;;;;5.86;67.36;101184.91;695000;28;44376;-59
2022/11/29 01:00:32;;;;;;;984.88;917.58;;;;;;;5.86;67.41;101181.38;694202;28;69445;-58
2022/11/29 01:00:53;;;;;;;976.13;909.20;;;;;;;5.85;67.15;101182.38;695752;28;21556;-59
2022/11/29 01:01:15;;;;;;;967.22;900.45;;;;;;;5.87;67.41;101181.22;694709;28;43152;-59
2022/11/29 01:01:37;;;;;;;979.53;912.05;;;;;;;5.88;67.24;101179.44;695798;28;21536;-58
2022/11/29 01:01:58;;;;;;;898.08;833.47;;;;;;;5.88;66.97;101174.06;691934;28;44448;-58
2022/11/29 01:02:19;;;;;;;898.08;833.90;;;;;;;5.89;67.19;101181.09;692794;28;22355;-59
2022/11/29 01:02:40;;;;;;;936.35;870.53;;;;;;;5.88;66.95;101179.44;691911;28;44427;-59
2022/11/29 01:03:02;;;;;;;958.95;892.28;;;;;;;5.87;67.14;101181.22;691949;28;21528;-60
2022/11/29 01:03:24;;;;;;;973.30;906.40;;;;;;;5.88;66.98;101182.09;692555;28;21530;-58
2022/11/29 01:03:45;;;;;;;987.25;919.88;;;;;;;5.87;67.33;101183.91;692446;28;44393;-60
2022/11/29 01:04:07;;;;;;;990.28;922.80;;;;;;;5.90;67.10;101178.28;695018;28;44422;-60
2022/11/29 01:04:29;;;;;;;1000.55;932.65;;;;;;;5.90;67.05;101172.91;695694;28;21513;-60
2022/11/29 01:04:51;;;;;;;993.35;925.70;;;;;;;5.91;67.32;101171.94;693910;28;69276;-60
2022/11/29 01:05:13;;;;;;;1004.70;936.50;;;;;;;5.93;67.02;101179.84;694183;28;46313;-60
2022/11/29 01:05:34;;;;;;;984.92;917.63;;;;;;;5.94;67.06;101174.34;695716;28;22378;-59
2022/11/29 01:06:00;;;;;;;987.95;920.60;;;;;;;5.96;66.88;101179.59;691253;28;45023;-60
2022/11/29 01:06:22;;;;;;;987.70;920.35;;;;;;;5.96;66.78;101184.94;689531;28;113531;-59
2022/11/29 01:06:43;;;;;;;989.90;922.50;;;;;;;5.96;66.75;101184.94;692033;28;44443;-59
2022/11/29 01:07:04;;;;;;;986.28;918.95;;;;;;;5.91;66.95;101177.31;692013;28;44211;-59
2022/11/29 01:07:26;;;;;;;982.33;915.17;;;;;;;5.91;66.79;101173.78;692489;28;24420;-61
2022/11/29 01:07:47;;;;;;;996.47;928.70;;;;;;;5.92;66.90;101179.03;693952;28;21329;-56
2022/11/29 01:08:10;;;;;;;992.80;925.17;;;;;;;5.92;66.94;101183.50;694159;28;45351;-58
2022/11/29 01:08:31;;;;;;;983.72;916.45;;;;;;;5.91;67.03;101181.84;691189;28;67508;-59
2022/11/29 01:08:52;;;;;;;965.45;898.42;;;;;;;5.90;66.83;101175.59;692744;28;23478;-60
2022/11/29 01:09:15;;;;;;;970.65;903.85;;;;;;;5.91;67.01;101179.16;692742;28;21080;-60
2022/11/29 01:09:36;;;;;;;974.15;907.28;;;;;;;5.91;66.91;101177.31;691608;28;46329;-60
2022/11/29 01:09:57;;;;;;;974.55;907.72;;;;;;;5.89;66.77;101178.41;691946;28;46261;-61
2022/11/29 01:10:18;;;;;;;974.70;907.88;;;;;;;5.89;66.87;101173.06;693444;28;21557;-59
2022/11/29 01:10:41;;;;;;;988.63;921.15;;;;;;;5.86;67.08;101176.88;695590;28;23449;-60
2022/11/29 01:11:05;;;;;;;993.40;925.47;;;;;;;5.88;67.11;101174.91;690780;28;68518;-61
2022/11/29 01:11:27;;;;;;;972.08;905.22;;;;;;;5.88;67.21;101177.59;690425;28;91929;-58
2022/11/29 01:11:48;;;;;;;966.85;900.38;;;;;;;5.87;67.03;101181.22;691762;28;46275;-61
2022/11/29 01:12:11;;;;;;;978.92;912.05;;;;;;;5.89;67.23;101175.75;692070;28;44387;-60
2022/11/29 01:12:34;;;;;;;987.85;920.60;;;;;;;5.89;66.91;101183.78;691896;28;44382;-60
2022/11/29 01:12:55;;;;;;;995.22;927.65;;;;;;;5.89;67.24;101189.16;689850;28;69381;-60
2022/11/29 01:13:16;;;;;;;982.30;915.17;;;;;;;5.88;67.38;101179.44;692220;28;23455;-60
2022/11/29 01:13:38;;;;;;;964.95;898.45;;;;;;;5.87;67.17;101183.91;692815;28;21578;-59
2022/11/29 01:14:01;;;;;;;976.20;909.13;;;;;;;5.87;67.24;101180.41;693128;28;46209;-59
2022/11/29 01:14:23;;;;;;;988.78;921.13;;;;;;;5.87;67.14;101180.41;693658;28;61627;-59
2022/11/29 01:14:44;;;;;;;980.60;913.35;;;;;;;5.86;67.27;101182.25;695538;28;22641;-60
2022/11/29 01:15:07;;;;;;;975.90;908.67;;;;;;;5.83;67.10;101176.28;695525;28;21508;-59
2022/11/29 01:15:30;;;;;;;897.30;832.83;;;;;;;5.87;67.40;101185.75;693222;28;93067;-59
2022/11/29 01:15:54;;;;;;;937.55;871.47;;;;;;;5.86;67.18;101178.69;693599;28;46335;-59
2022/11/29 01:16:16;;;;;;;941.45;875.50;;;;;;;5.86;67.21;101186.72;692501;28;114911;-59
2022/11/29 01:16:38;;;;;;;985.17;917.65;;;;;;;5.86;67.08;101182.25;693539;28;46389;-59
2022/11/29 01:17:00;;;;;;;990.28;922.53;;;;;;;5.85;67.20;101182.38;694799;28;22396;-61
2022/11/29 01:17:21;;;;;;;995.50;927.63;;;;;;;5.85;67.41;101185.06;693910;28;45236;-61
2022/11/29 01:17:42;;;;;;;983.28;915.97;;;;;;;5.86;67.21;101179.56;694114;28;22381;-59
2022/11/29 01:18:04;;;;;;;979.42;912.22;;;;;;;5.86;67.37;101181.38;693988;28;45013;-59
2022/11/29 01:18:26;;;;;;;983.55;916.25;;;;;;;5.85;67.18;101185.06;695568;28;22401;-58
2022/11/29 01:18:48;;;;;;;981.83;914.65;;;;;;;5.86;67.09;101186.72;695525;28;46312;-59
2022/11/29 01:19:09;;;;;;;986.35;919.00;;;;;;;5.82;67.32;101183.47;694512;28;46284;-57
2022/11/29 01:19:32;;;;;;;979.72;912.47;;;;;;;5.87;67.35;101188.44;694717;28;46194;-60
2022/11/29 01:19:54;;;;;;;982.13;914.83;;;;;;;5.84;67.23;101188.72;694543;28;44449;-60
2022/11/29 01:20:16;;;;;;;990.70;923.00;;;;;;;5.84;67.12;101186.03;693985;28;70149;-60
2022/11/29 01:20:37;;;;;;;974.42;907.42;;;;;;;5.85;67.06;101182.38;695622;28;22360;-57
2022/11/29 01:21:00;;;;;;;970.50;903.67;;;;;;;5.86;67.26;101186.72;695217;28;22093;-60
2022/11/29 01:21:23;;;;;;;977.15;910.13;;;;;;;5.85;67.32;101185.91;694016;28;70623;-59
2022/11/29 01:21:44;;;;;;;986.10;918.83;;;;;;;5.85;66.93;101185.91;693213;28;92252;-61
2022/11/29 01:22:05;;;;;;;990.08;922.60;;;;;;;5.85;67.03;101182.38;695404;28;21544;-60
2022/11/29 01:22:27;;;;;;;995.38;927.78;;;;;;;5.84;67.09;101189.53;695683;28;21537;-60
2022/11/29 01:22:48;;;;;;;995.97;928.40;;;;;;;5.84;67.16;101188.72;697873;28;22384;-60
2022/11/29 01:23:09;;;;;;;1005.85;937.67;;;;;;;5.84;67.35;101177.97;695698;28;46318;-59
2022/11/29 01:23:32;;;;;;;998.85;930.90;;;;;;;5.83;66.97;101187.88;695632;28;23481;-59
2022/11/29 01:23:53;;;;;;;975.83;908.72;;;;;;;5.82;67.30;101183.47;694710;28;46295;-58
2022/11/29 01:24:14;;;;;;;984.63;917.30;;;;;;;5.81;67.21;101184.47;691920;28;46708;-61
2022/11/29 01:24:35;;;;;;;986.05;918.63;;;;;;;5.83;67.30;101184.31;692870;28;22393;-57
2022/11/29 01:24:58;;;;;;;985.15;917.72;;;;;;;5.82;67.17;101185.31;692662;28;22361;-60
2022/11/29 01:25:19;;;;;;;987.97;920.40;;;;;;;5.83;67.28;101187.88;691782;28;69327;-61
2022/11/29 01:25:40;;;;;;;992.63;925.13;;;;;;;5.84;67.31;101188.72;695574;28;22434;-61
2022/11/29 01:26:04;;;;;;;992.58;924.97;;;;;;;5.84;67.36;101184.19;695463;28;22405;-60
2022/11/29 01:26:28;;;;;;;990.03;922.42;;;;;;;5.86;67.02;101182.25;692937;28;90347;-58
2022/11/29 01:26:50;;;;;;;987.50;920.05;;;;;;;5.88;67.27;101182.94;692818;28;92050;-61
2022/11/29 01:27:11;;;;;;;974.72;907.75;;;;;;;5.89;67.29;101187.34;694731;28;45323;-61
2022/11/29 01:27:33;;;;;;;986.72;919.35;;;;;;;5.90;67.21;101196.22;695659;28;22398;-60
2022/11/29 01:27:54;;;;;;;977.85;910.85;;;;;;;5.90;67.20;101185.50;694751;28;44553;-58
2022/11/29 01:28:15;;;;;;;979.05;911.92;;;;;;;5.90;66.92;101190.84;694486;28;22378;-61
2022/11/29 01:28:38;;;;;;;987.15;919.75;;;;;;;5.91;66.92;101185.34;695578;28;22441;-61
2022/11/29 01:28:59;;;;;;;988.58;921.08;;;;;;;5.92;66.88;101189.75;693832;28;69285;-59
2022/11/29 01:29:20;;;;;;;986.67;919.30;;;;;;;5.93;67.00;101187.91;695432;28;21402;-60
2022/11/29 01:29:42;;;;;;;993.63;925.95;;;;;;;5.91;66.70;101189.88;695542;28;21514;-59
2022/11/29 01:30:05;;;;;;;982.75;915.50;;;;;;;5.91;66.98;101187.19;694903;28;45098;-61
2022/11/29 01:30:26;;;;;;;969.70;902.80;;;;;;;5.92;66.61;101178.16;690565;28;69409;-62
2022/11/29 01:30:48;;;;;;;974.80;907.72;;;;;;;5.91;66.94;101190.72;691718;28;46328;-58
2022/11/29 01:31:11;;;;;;;980.72;913.58;;;;;;;5.92;67.03;101194.25;692780;28;21537;-59
2022/11/29 01:31:35;;;;;;;988.33;920.85;;;;;;;5.90;66.94;101185.50;690326;28;93042;-61
2022/11/29 01:31:56;;;;;;;984.10;916.78;;;;;;;5.85;66.70;101175.16;691007;28;69390;-60
2022/11/29 01:32:17;;;;;;;973.53;906.60;;;;;;;5.90;67.09;101189.00;693643;28;23555;-59
2022/11/29 01:32:39;;;;;;;988.65;921.15;;;;;;;5.89;67.10;101186.47;694652;28;45271;-61
2022/11/29 01:33:00;;;;;;;986.85;919.50;;;;;;;5.90;67.08;101190.84;694900;28;23371;-59
2022/11/29 01:33:22;;;;;;;982.97;915.75;;;;;;;5.92;66.88;101183.50;695488;28;22392;-60
2022/11/29 01:33:44;;;;;;;984.08;916.60;;;;;;;5.90;66.86;101183.66;693746;28;67414;-61
2022/11/29 01:34:06;;;;;;;989.13;921.58;;;;;;;5.91;66.92;101188.03;695695;28;22465;-61
2022/11/29 01:34:27;;;;;;;988.10;920.70;;;;;;;5.90;67.17;101185.50;694812;28;46166;-61
2022/11/29 01:34:50;;;;;;;984.20;916.92;;;;;;;5.90;66.96;101188.16;695491;28;22375;-59
2022/11/29 01:35:12;;;;;;;988.58;921.00;;;;;;;5.87;66.97;101191.97;693137;28;91356;-60
2022/11/29 01:35:33;;;;;;;990.65;923.08;;;;;;;5.86;66.77;101184.91;695701;28;22402;-61
2022/11/29 01:35:54;;;;;;;978.70;911.55;;;;;;;5.87;66.62;101188.44;697030;28;23486;-59
2022/11/29 01:36:16;;;;;;;975.20;908.20;;;;;;;5.85;66.82;101190.41;695217;28;46333;-60
2022/11/29 01:36:38;;;;;;;983.83;916.42;;;;;;;5.85;67.01;101190.41;694469;28;45226;-60
2022/11/29 01:36:59;;;;;;;990.92;923.28;;;;;;;5.86;67.03;101186.72;694651;28;23508;-61
2022/11/29 01:37:20;;;;;;;982.97;915.63;;;;;;;5.86;67.15;101186.72;695711;28;22375;-60
2022/11/29 01:37:41;;;;;;;988.63;921.15;;;;;;;5.80;67.07;101181.91;694842;28;47174;-59
2022/11/29 01:38:03;;;;;;;987.55;919.97;;;;;;;5.83;66.90;101187.00;694852;28;23656;-61
2022/11/29 01:38:25;;;;;;;989.67;921.95;;;;;;;5.84;67.24;101186.88;694321;28;46330;-60
2022/11/29 01:38:46;;;;;;;986.33;918.75;;;;;;;5.83;67.01;101187.00;695295;28;21541;-58
2022/11/29 01:39:07;;;;;;;987.58;919.97;;;;;;;5.84;67.07;101186.03;694723;28;44397;-60
2022/11/29 01:39:29;;;;;;;990.45;922.88;;;;;;;5.82;67.33;101182.66;695719;28;22374;-61
2022/11/29 01:39:51;;;;;;;981.45;914.00;;;;;;;5.84;67.23;101188.72;693390;28;44232;-61